Time;durP1;ratioP1;P1;durP2;ratioP2;P2;SDS_P1;SDS_P2;PMS_P1;PMS_P2;Temp;Humidity;BMP_temperature;BMP_pressure;BME280_temperature;BME280_humidity;BME280_pressure;Samples;Min_cycle;Max_cycle;Signal;HPM_P1;HPM_P2
2021/03/30 00:00:20;;;;;;;2.83;2.10;;;8.50;99.90;;;;;;5070750;28;20480;-68
2021/03/30 00:02:47;;;;;;;4.10;2.60;;;8.30;99.90;;;;;;5071239;28;20573;-68
2021/03/30 00:05:14;;;;;;;4.53;2.00;;;8.20;99.90;;;;;;5084986;28;20502;-68
2021/03/30 00:07:40;;;;;;;4.47;2.63;;;8.10;99.90;;;;;;5070594;28;20460;-68
2021/03/30 00:10:10;;;;;;;2.43;2.23;;;8.00;99.90;;;;;;5071159;28;20528;-68
2021/03/30 00:12:37;;;;;;;2.77;2.30;;;8.00;99.90;;;;;;5070430;28;21029;-68
2021/03/30 00:15:04;;;;;;;5.87;2.30;;;8.00;99.90;;;;;;5070895;28;20445;-68
2021/03/30 00:17:30;;;;;;;4.30;2.20;;;7.90;99.90;;;;;;5070274;28;20888;-68
2021/03/30 00:19:58;;;;;;;3.50;2.10;;;8.00;99.90;;;;;;5071064;28;20524;-68
2021/03/30 00:22:24;;;;;;;3.57;1.93;;;7.90;99.90;;;;;;5070159;28;20576;-68
2021/03/30 00:24:50;;;;;;;3.10;2.03;;;7.90;99.90;;;;;;5070776;28;20930;-69
2021/03/30 00:27:17;;;;;;;2.47;1.70;;;7.90;99.90;;;;;;5070083;28;20470;-66
2021/03/30 00:29:43;;;;;;;3.93;2.43;;;7.90;99.90;;;;;;5070687;28;20600;-67
2021/03/30 00:32:10;;;;;;;2.63;1.90;;;8.00;99.90;;;;;;5070651;28;20540;-68
2021/03/30 00:34:37;;;;;;;3.33;1.87;;;8.00;99.90;;;;;;5070281;28;20480;-68
2021/03/30 00:37:05;;;;;;;3.17;2.00;;;8.00;99.90;;;;;;5070303;28;20544;-68
2021/03/30 00:39:31;;;;;;;4.17;2.40;;;8.10;99.90;;;;;;5070525;28;20484;-68
2021/03/30 00:41:58;;;;;;;2.83;1.83;;;8.00;99.90;;;;;;5071062;28;20568;-68
2021/03/30 00:44:25;;;;;;;2.27;2.00;;;7.90;99.90;;;;;;5088113;28;20778;-68
2021/03/30 00:46:52;;;;;;;3.37;1.73;;;8.00;99.90;;;;;;5079950;28;20500;-68
2021/03/30 00:49:20;;;;;;;4.97;2.50;;;8.00;99.90;;;;;;5070521;28;20481;-68
2021/03/30 00:51:48;;;;;;;5.33;2.63;;;8.00;99.90;;;;;;5070506;28;20484;-68
2021/03/30 00:54:16;;;;;;;2.50;1.87;;;8.20;99.90;;;;;;5070794;28;20532;-68
2021/03/30 00:56:43;;;;;;;2.27;1.70;;;8.00;99.90;;;;;;5070558;28;20483;-68
2021/03/30 00:59:10;;;;;;;2.47;1.93;;;7.80;99.90;;;;;;5073878;28;20520;-68
2021/03/30 01:01:37;;;;;;;4.40;1.70;;;8.00;99.90;;;;;;5073399;28;20997;-68
2021/03/30 01:04:04;;;;;;;2.80;2.37;;;8.10;99.90;;;;;;5080623;28;20472;-68
2021/03/30 01:06:30;;;;;;;3.20;1.90;;;8.10;99.90;;;;;;5080391;28;20798;-67
2021/03/30 01:09:08;;;;;;;3.50;1.83;;;8.00;99.90;;;;;;5074006;28;20484;-67
2021/03/30 01:11:49;;;;;;;4.67;2.50;;;7.90;99.90;;;;;;5073395;28;20868;-66
2021/03/30 01:14:29;;;;;;;4.20;2.10;;;7.80;99.90;;;;;;5074060;28;20479;-68
2021/03/30 01:17:05;;;;;;;3.13;1.90;;;7.90;99.90;;;;;;5073831;28;20857;-66
2021/03/30 01:19:59;;;;;;;2.87;1.70;;;7.80;99.90;;;;;;5073601;28;20989;-66
2021/03/30 01:22:53;;;;;;;4.90;1.93;;;7.90;99.90;;;;;;5083633;28;20483;-67
2021/03/30 01:25:20;;;;;;;3.67;2.13;;;7.80;99.90;;;;;;5093937;28;20500;-68
2021/03/30 01:28:00;;;;;;;3.90;1.90;;;7.60;99.90;;;;;;5093836;28;20847;-68
2021/03/30 01:30:28;;;;;;;3.40;1.90;;;7.50;99.90;;;;;;5093429;28;20471;-68
2021/03/30 01:33:01;;;;;;;2.93;2.10;;;7.40;99.90;;;;;;5094276;28;20532;-68
2021/03/30 01:35:28;;;;;;;2.47;2.07;;;7.20;99.90;;;;;;5096253;28;20496;-68
2021/03/30 01:37:56;;;;;;;3.37;2.47;;;7.10;99.90;;;;;;5094151;28;20476;-68
2021/03/30 01:40:26;;;;;;;2.43;1.77;;;7.10;99.90;;;;;;5093705;28;20452;-67
2021/03/30 01:42:54;;;;;;;3.47;1.93;;;7.20;99.90;;;;;;5093704;28;20580;-68
2021/03/30 01:45:23;;;;;;;3.47;2.17;;;7.20;99.90;;;;;;5093687;28;20455;-68
2021/03/30 01:47:52;;;;;;;4.60;2.20;;;7.00;99.90;;;;;;5093751;28;20447;-68
2021/03/30 01:50:19;;;;;;;3.30;2.07;;;6.90;99.90;;;;;;5093672;28;20498;-68
2021/03/30 01:52:47;;;;;;;3.63;2.10;;;6.80;99.90;;;;;;5093722;28;20543;-68
2021/03/30 01:55:16;;;;;;;4.17;2.57;;;6.70;1.00;;;;;;5093305;28;20550;-68
2021/03/30 01:57:46;;;;;;;9.10;2.27;;;6.70;1.00;;;;;;5093623;28;20451;-68
2021/03/30 02:00:15;;;;;;;3.50;2.60;;;6.70;1.00;;;;;;5093722;28;20527;-68
2021/03/30 02:02:43;;;;;;;3.87;1.83;;;6.70;1.00;;;;;;5093090;28;20525;-68
2021/03/30 02:05:12;;;;;;;3.90;2.40;;;6.90;1.00;;;;;;5091443;28;20469;-68
2021/03/30 02:07:40;;;;;;;2.33;1.70;;;6.90;1.00;;;;;;5072012;28;20523;-68
2021/03/30 02:10:12;;;;;;;2.77;2.33;;;6.80;1.00;;;;;;5072306;28;20871;-67
2021/03/30 02:12:44;;;;;;;3.70;2.10;;;6.60;1.00;;;;;;5072724;28;20451;-68
2021/03/30 02:15:12;;;;;;;7.83;2.37;;;6.60;1.00;;;;;;5073212;28;20474;-68
2021/03/30 02:17:42;;;;;;;5.10;2.23;;;6.50;1.00;;;;;;5071897;28;20456;-68
2021/03/30 02:20:17;;;;;;;2.10;1.67;;;6.80;1.00;;;;;;5072757;28;20488;-68
2021/03/30 02:22:49;;;;;;;3.73;2.47;;;6.90;1.00;;;;;;5072944;28;20617;-68
2021/03/30 02:25:16;;;;;;;8.37;2.30;;;6.90;1.00;;;;;;5079390;28;20538;-69
2021/03/30 02:27:43;;;;;;;4.40;2.27;;;6.70;1.00;;;;;;5092644;28;20576;-68
2021/03/30 02:30:13;;;;;;;5.03;2.00;;;6.80;1.00;;;;;;5093115;28;20481;-68
2021/03/30 02:32:41;;;;;;;2.93;2.27;;;6.80;1.00;;;;;;5092298;28;20450;-68
2021/03/30 02:35:10;;;;;;;2.50;1.80;;;6.70;1.00;;;;;;5092946;28;20565;-67
2021/03/30 02:37:38;;;;;;;6.57;2.67;;;6.50;1.00;;;;;;5091448;28;20534;-67
2021/03/30 02:40:08;;;;;;;5.03;2.60;;;6.60;1.00;;;;;;5092766;28;20620;-67
2021/03/30 02:42:37;;;;;;;3.00;1.80;;;6.50;1.00;;;;;;5092253;28;21334;-68
2021/03/30 02:45:05;;;;;;;5.23;2.63;;;6.50;1.00;;;;;;5092395;28;20534;-67
2021/03/30 02:47:32;;;;;;;4.70;1.97;;;6.40;1.00;;;;;;5091353;28;20529;-67
2021/03/30 02:50:01;;;;;;;2.77;2.27;;;6.30;1.00;;;;;;5092798;28;20532;-68
2021/03/30 02:52:30;;;;;;;3.90;2.13;;;6.20;1.00;;;;;;5092043;28;20550;-68
2021/03/30 02:54:58;;;;;;;1.87;1.67;;;6.20;1.00;;;;;;5092562;28;20454;-67
2021/03/30 02:57:24;;;;;;;2.40;1.67;;;6.20;1.00;;;;;;5091380;28;20540;-67
2021/03/30 02:59:54;;;;;;;3.70;2.20;;;6.20;1.00;;;;;;5092605;28;20529;-67
2021/03/30 03:02:21;;;;;;;3.90;2.33;;;6.20;1.00;;;;;;5091758;28;20565;-67
2021/03/30 03:04:48;;;;;;;4.20;2.70;;;6.10;1.00;;;;;;5091966;28;21042;-67
2021/03/30 03:07:16;;;;;;;3.57;1.90;;;6.40;1.00;;;;;;5072238;28;20453;-68
2021/03/30 03:09:43;;;;;;;3.57;2.23;;;6.40;1.00;;;;;;5072056;28;20885;-67
2021/03/30 03:12:12;;;;;;;2.43;1.87;;;6.30;1.00;;;;;;5071947;28;20452;-67
2021/03/30 03:14:41;;;;;;;4.53;2.50;;;6.30;1.00;;;;;;5071072;28;20523;-67
2021/03/30 03:17:09;;;;;;;3.80;2.07;;;6.40;1.00;;;;;;5078114;28;20524;-67
2021/03/30 03:19:37;;;;;;;2.53;1.83;;;6.20;1.00;;;;;;5091595;28;20932;-67
2021/03/30 03:22:04;;;;;;;5.43;2.17;;;6.20;1.00;;;;;;5091631;28;20990;-67
2021/03/30 03:24:31;;;;;;;2.70;1.93;;;6.10;1.00;;;;;;5091159;28;20493;-67
2021/03/30 03:26:58;;;;;;;4.53;1.97;;;6.00;1.00;;;;;;5091670;28;20859;-67
2021/03/30 03:29:25;;;;;;;7.43;2.47;;;6.00;48.40;;;;;;5091415;28;20534;-67
2021/03/30 03:31:52;;;;;;;3.70;2.40;;;6.10;26.40;;;;;;5091832;28;20932;-67
2021/03/30 03:34:19;;;;;;;4.50;2.17;;;6.30;1.00;;;;;;5076038;28;20576;-67
2021/03/30 03:36:48;;;;;;;5.73;2.67;;;6.20;1.00;;;;;;5070840;28;20541;-66
2021/03/30 03:39:17;;;;;;;4.10;2.10;;;6.30;1.00;;;;;;5071519;28;20852;-66
2021/03/30 03:41:44;;;;;;;7.40;2.60;;;6.40;1.00;;;;;;5071358;28;20478;-67
2021/03/30 03:44:11;;;;;;;5.80;2.40;;;6.40;1.00;;;;;;5071159;28;20455;-67
2021/03/30 03:46:40;;;;;;;2.40;2.17;;;6.20;1.00;;;;;;5070495;28;20542;-67
2021/03/30 03:49:07;;;;;;;5.23;2.63;;;6.20;50.40;;;;;;5071492;28;20452;-67
2021/03/30 03:51:37;;;;;;;3.87;2.40;;;6.20;80.30;;;;;;5070632;28;20853;-67
2021/03/30 03:54:08;;;;;;;3.90;2.47;;;6.30;62.20;;;;;;5071071;28;20958;-66
2021/03/30 03:56:47;;;;;;;3.63;2.30;;;6.40;3.60;;;;;;5070558;28;20853;-67
2021/03/30 03:59:18;;;;;;;2.60;2.40;;;6.50;1.00;;;;;;5071375;28;20434;-67
2021/03/30 04:01:50;;;;;;;3.17;2.03;;;6.40;1.00;;;;;;5071255;28;20465;-67
2021/03/30 04:04:23;;;;;;;4.73;2.60;;;6.30;1.00;;;;;;5079088;28;20819;-68
2021/03/30 04:06:55;;;;;;;4.70;2.63;;;6.40;1.00;;;;;;5076986;28;20447;-67
2021/03/30 04:09:21;;;;;;;4.50;2.50;;;6.20;1.00;;;;;;5071108;28;20497;-68
2021/03/30 04:11:50;;;;;;;3.63;2.63;;;6.20;1.00;;;;;;5071172;28;20460;-67
2021/03/30 04:14:18;;;;;;;2.77;2.20;;;6.10;99.90;;;;;;5070239;28;20441;-68
2021/03/30 04:16:46;;;;;;;5.07;2.50;;;6.20;72.80;;;;;;5070832;28;20480;-67
2021/03/30 04:19:13;;;;;;;4.90;2.10;;;6.20;82.90;;;;;;5071185;28;20493;-67
2021/03/30 04:21:40;;;;;;;3.23;2.50;;;6.30;16.10;;;;;;5070382;28;20526;-67
2021/03/30 04:24:08;;;;;;;5.30;3.10;;;6.20;99.90;;;;;;5070903;28;20450;-67
2021/03/30 04:26:35;;;;;;;3.87;2.80;;;6.30;49.20;;;;;;5070024;28;20819;-67
2021/03/30 04:29:02;;;;;;;4.53;2.73;;;6.40;2.80;;;;;;5070597;28;20450;-67
2021/03/30 04:31:28;;;;;;;4.10;2.50;;;6.20;1.00;;;;;;5070025;28;20480;-67
2021/03/30 04:33:55;;;;;;;3.97;2.67;;;6.10;99.90;;;;;;5074203;28;20603;-67
2021/03/30 04:36:22;;;;;;;4.50;2.93;;;5.80;99.90;;;;;;5074018;28;20475;-67
2021/03/30 04:38:48;;;;;;;5.83;2.23;;;5.90;99.90;;;;;;5075004;28;20524;-67
2021/03/30 04:41:15;;;;;;;3.70;2.00;;;6.00;99.90;;;;;;5074812;28;20480;-67
2021/03/30 04:43:41;;;;;;;8.90;2.83;;;5.80;99.90;;;;;;5074344;28;20522;-66
2021/03/30 04:46:08;;;;;;;8.40;2.73;;;5.70;1.00;;;;;;5073897;28;20524;-67
2021/03/30 04:48:34;;;;;;;4.10;3.10;;;5.70;1.00;;;;;;5074144;28;20534;-68
2021/03/30 04:51:03;;;;;;;3.70;2.50;;;6.00;99.90;;;;;;5074432;28;20490;-66
2021/03/30 04:53:29;;;;;;;5.60;3.17;;;6.10;99.90;;;;;;5073756;28;20532;-67
2021/03/30 04:55:56;;;;;;;3.73;2.20;;;6.10;99.90;;;;;;5074014;28;20551;-67
2021/03/30 04:58:22;;;;;;;3.13;2.50;;;6.10;99.90;;;;;;5073781;28;20534;-66
2021/03/30 05:00:49;;;;;;;4.37;2.67;;;6.00;99.90;;;;;;5074696;28;20546;-66
2021/03/30 05:03:15;;;;;;;5.57;3.63;;;6.10;99.90;;;;;;5074285;28;20508;-67
2021/03/30 05:05:42;;;;;;;5.00;3.00;;;5.90;99.90;;;;;;5087461;28;20516;-66
2021/03/30 05:08:09;;;;;;;4.20;2.83;;;5.90;99.90;;;;;;5074240;28;20454;-68
2021/03/30 05:10:35;;;;;;;6.27;2.60;;;5.90;99.90;;;;;;5073545;28;20910;-66
2021/03/30 05:13:02;;;;;;;5.50;2.43;;;5.80;99.90;;;;;;5074137;28;20530;-66
2021/03/30 05:15:28;;;;;;;4.73;2.67;;;6.00;1.00;;;;;;5073045;28;20572;-67
2021/03/30 05:17:55;;;;;;;11.13;2.90;;;5.80;1.00;;;;;;5073801;28;20451;-67
2021/03/30 05:20:21;;;;;;;5.10;3.47;;;5.80;1.00;;;;;;5080628;28;20528;-67
2021/03/30 05:22:48;;;;;;;5.10;2.97;;;5.70;1.00;;;;;;5093935;28;20565;-67
2021/03/30 05:25:16;;;;;;;4.73;2.53;;;5.70;1.00;;;;;;5094250;28;20540;-67
2021/03/30 05:27:42;;;;;;;4.10;2.90;;;5.70;1.00;;;;;;5093787;28;20449;-67
2021/03/30 05:30:11;;;;;;;4.43;2.77;;;5.80;1.00;;;;;;5093983;28;20457;-67
2021/03/30 05:32:38;;;;;;;6.13;3.20;;;5.90;1.00;;;;;;5093473;28;20455;-67
2021/03/30 05:35:06;;;;;;;6.40;3.00;;;6.00;1.00;;;;;;5093668;28;21145;-66
2021/03/30 05:37:32;;;;;;;4.37;3.20;;;6.00;99.90;;;;;;5092783;28;20532;-67
2021/03/30 05:39:59;;;;;;;3.33;2.90;;;6.00;1.00;;;;;;5094055;28;20533;-66
2021/03/30 05:42:26;;;;;;;4.73;2.90;;;5.80;1.00;;;;;;5093023;28;20576;-67
2021/03/30 05:44:53;;;;;;;8.47;3.30;;;5.80;1.00;;;;;;5092787;28;20441;-67
2021/03/30 05:47:22;;;;;;;6.70;3.20;;;5.80;1.00;;;;;;5092999;28;20524;-67
2021/03/30 05:49:50;;;;;;;5.20;2.77;;;6.00;1.00;;;;;;5094229;28;20444;-67
2021/03/30 05:52:24;;;;;;;4.47;3.50;;;6.00;1.00;;;;;;5092788;28;21021;-67
2021/03/30 05:54:53;;;;;;;3.60;2.37;;;5.80;33.80;;;;;;5093819;28;20520;-67
2021/03/30 05:57:24;;;;;;;4.20;3.33;;;6.00;1.00;;;;;;5092820;28;20469;-67
2021/03/30 05:59:53;;;;;;;7.33;3.37;;;6.40;1.00;;;;;;5093646;28;21005;-66
2021/03/30 06:02:22;;;;;;;4.00;3.03;;;6.40;1.00;;;;;;5093018;28;20568;-67
2021/03/30 06:04:50;;;;;;;4.13;2.90;;;6.60;99.90;;;;;;5093539;28;20876;-67
2021/03/30 06:07:16;;;;;;;5.33;3.20;;;6.60;99.90;;;;;;5073101;28;20471;-68
2021/03/30 06:09:44;;;;;;;7.33;4.03;;;6.70;99.90;;;;;;5073267;28;20969;-67
2021/03/30 06:12:12;;;;;;;4.67;4.20;;;6.80;99.90;;;;;;5072882;28;20445;-67
2021/03/30 06:14:40;;;;;;;4.87;3.23;;;7.00;99.90;;;;;;5072716;28;20983;-67
2021/03/30 06:17:09;;;;;;;4.47;4.07;;;7.10;99.90;;;;;;5079152;28;20995;-67
2021/03/30 06:19:53;;;;;;;6.50;3.70;;;7.10;99.90;;;;;;5092677;28;20447;-67
2021/03/30 06:22:22;;;;;;;6.63;3.73;;;7.10;99.90;;;;;;5092743;28;20514;-67
2021/03/30 06:24:51;;;;;;;7.93;4.13;;;7.20;99.90;;;;;;5092907;28;20502;-67
2021/03/30 06:27:24;;;;;;;9.97;4.30;;;7.30;99.90;;;;;;5091994;28;21000;-67
2021/03/30 06:29:52;;;;;;;8.73;4.07;;;7.30;99.90;;;;;;5093414;28;20447;-66
2021/03/30 06:32:21;;;;;;;8.97;4.20;;;7.40;99.90;;;;;;5092320;28;20501;-67
2021/03/30 06:34:58;;;;;;;9.90;4.20;;;7.50;99.90;;;;;;5092531;28;20507;-67
2021/03/30 06:37:32;;;;;;;10.70;5.37;;;7.60;99.70;;;;;;5091908;28;20444;-67
2021/03/30 06:40:01;;;;;;;10.10;3.53;;;7.70;63.00;;;;;;5093203;28;20532;-67
2021/03/30 06:42:37;;;;;;;8.43;4.37;;;7.80;47.40;;;;;;5092044;28;20548;-67
2021/03/30 06:45:13;;;;;;;11.43;3.87;;;7.90;14.80;;;;;;5092768;28;20453;-67
2021/03/30 06:47:41;;;;;;;8.00;4.90;;;8.10;1.00;;;;;;5092618;28;20526;-67
2021/03/30 06:50:16;;;;;;;6.60;4.00;;;8.20;1.00;;;;;;5092437;28;20480;-67
2021/03/30 06:52:42;;;;;;;13.97;4.80;;;8.30;1.00;;;;;;5092453;28;20448;-68
2021/03/30 06:55:11;;;;;;;5.40;3.67;;;8.30;1.00;;;;;;5091652;28;21078;-67
2021/03/30 06:57:43;;;;;;;17.70;5.07;;;8.40;1.00;;;;;;5073415;28;20453;-67
2021/03/30 07:00:12;;;;;;;7.70;4.30;;;8.60;1.00;;;;;;5072385;28;20454;-66
2021/03/30 07:02:45;;;;;;;7.53;3.90;;;8.70;1.00;;;;;;5071420;28;20477;-67
2021/03/30 07:05:27;;;;;;;8.00;4.13;;;8.80;1.00;;;;;;5085392;28;20464;-68
2021/03/30 07:07:57;;;;;;;7.33;4.63;;;9.00;1.00;;;;;;5072288;28;20525;-68
2021/03/30 07:10:24;;;;;;;17.90;6.57;;;9.00;1.00;;;;;;5071683;28;20445;-68
2021/03/30 07:12:52;;;;;;;5.47;4.30;;;9.30;1.00;;;;;;5071847;28;20449;-68
2021/03/30 07:15:23;;;;;;;7.57;5.43;;;9.40;1.00;;;;;;5070970;28;20789;-68
2021/03/30 07:18:00;;;;;;;6.87;4.67;;;9.50;1.00;;;;;;5071816;28;20437;-68
2021/03/30 07:20:27;;;;;;;12.10;4.57;;;9.60;1.00;;;;;;5079064;28;20464;-68
2021/03/30 07:22:55;;;;;;;10.90;4.83;;;9.70;1.00;;;;;;5091832;28;20480;-68
2021/03/30 07:25:23;;;;;;;8.13;4.53;;;;;;;;;;5091247;28;20483;-68
2021/03/30 07:27:52;;;;;;;7.00;4.43;;;;;;;;;;5091904;28;20909;-68
2021/03/30 07:30:19;;;;;;;5.90;3.83;;;;;;;;;;5091181;28;20476;-68
2021/03/30 07:32:51;;;;;;;10.57;4.53;;;;;;;;;;5091502;28;20539;-65
2021/03/30 07:35:20;;;;;;;9.87;5.10;;;;;;;;;;5090538;28;20882;-68
2021/03/30 07:37:51;;;;;;;12.70;5.60;;;;;;;;;;5091489;28;20531;-68
2021/03/30 07:40:19;;;;;;;9.10;4.77;;;;;;;;;;5091276;28;20524;-68
2021/03/30 07:42:46;;;;;;;17.47;5.17;;;;;;;;;;5091437;28;21106;-68
2021/03/30 07:45:15;;;;;;;7.00;4.13;;;;;;;;;;5091508;28;21013;-65
2021/03/30 07:47:41;;;;;;;7.83;4.50;;;;;;;;;;5091382;28;20455;-66
2021/03/30 07:50:09;;;;;;;8.60;4.50;;;;;;;;;;5091400;28;20959;-66
2021/03/30 07:52:41;;;;;;;9.37;4.73;;;;;;;;;;5090758;28;21491;-66
2021/03/30 07:55:15;;;;;;;7.27;4.50;;;;;;;;;;5091140;28;20517;-66
2021/03/30 07:58:00;;;;;;;7.90;4.60;;;;;;;;;;5091540;28;20444;-66
2021/03/30 08:00:46;;;;;;;10.10;5.90;;;;;;;;;;5090679;28;20444;-66
2021/03/30 08:03:15;;;;;;;9.43;5.30;;;;;;;;;;5091285;28;20847;-66
2021/03/30 08:05:42;;;;;;;7.93;5.77;;;;;;;;;;5085000;28;20441;-66
2021/03/30 08:08:21;;;;;;;8.23;5.23;;;;;;;;;;5070454;28;20477;-67
2021/03/30 08:10:48;;;;;;;18.50;6.30;;;;;;;;;;5079290;28;20460;-66
2021/03/30 08:13:25;;;;;;;7.97;5.53;;;;;;;;;;5091521;28;20464;-67
2021/03/30 08:15:53;;;;;;;13.17;5.67;;;;;;;;;;5091154;28;20447;-66
2021/03/30 08:18:20;;;;;;;16.20;6.00;;;;;;;;;;5090670;28;20896;-66
2021/03/30 08:20:57;;;;;;;15.33;5.77;;;;;;;;;;5091038;28;20540;-66
2021/03/30 08:23:25;;;;;;;13.80;5.70;;;9.90;1.00;;;;;;5090729;28;20613;-66
2021/03/30 08:25:54;;;;;;;8.70;5.43;;;12.70;99.90;;;;;;5091156;28;20488;-66
2021/03/30 08:28:57;;;;;;;16.87;5.63;;;12.80;99.90;;;;;;5090878;28;20440;-66
2021/03/30 08:31:26;;;;;;;19.63;7.27;;;12.90;99.90;;;;;;5048637;28;20451;-66
2021/03/30 08:33:55;;;;;;;6.37;5.23;;;13.10;99.90;;;;;;5091231;28;20877;-66
2021/03/30 08:36:25;;;;;;;9.23;5.40;;;13.20;99.90;;;;;;5090364;28;20441;-66
2021/03/30 08:38:55;;;;;;;13.33;6.03;;;13.20;99.90;;;;;;5091086;28;20451;-66
2021/03/30 08:41:56;;;;;;;10.00;5.53;;;13.40;99.90;;;;;;5090577;28;20447;-67
2021/03/30 08:44:41;;;;;;;9.17;7.30;;;13.50;99.90;;;;;;5090519;28;20519;-66
2021/03/30 08:47:09;;;;;;;9.90;7.03;;;13.60;99.90;;;;;;5090845;28;20513;-67
2021/03/30 08:49:38;;;;;;;11.00;5.60;;;13.70;99.90;;;;;;5090473;28;20484;-67
2021/03/30 08:52:07;;;;;;;9.23;5.90;;;13.90;99.90;;;;;;5091137;28;20486;-66
2021/03/30 08:54:37;;;;;;;6.40;5.23;;;14.00;99.90;;;;;;5090591;28;20865;-66
2021/03/30 08:57:06;;;;;;;12.90;6.10;;;14.10;99.90;;;;;;5090740;28;20964;-66
2021/03/30 08:59:33;;;;;;;10.30;6.20;;;14.20;99.90;;;;;;5090104;28;20523;-66
2021/03/30 09:02:05;;;;;;;13.00;6.10;;;14.20;99.90;;;;;;5090701;28;20436;-66
2021/03/30 09:04:37;;;;;;;9.60;5.90;;;14.40;99.90;;;;;;5090646;28;20528;-66
2021/03/30 09:07:07;;;;;;;9.73;6.43;;;14.50;99.90;;;;;;5072923;28;20465;-66
2021/03/30 09:09:35;;;;;;;7.83;7.03;;;14.70;99.90;;;;;;5070364;28;20456;-66
2021/03/30 09:12:04;;;;;;;13.63;6.20;;;14.70;99.90;;;;;;5070972;28;20437;-66
2021/03/30 09:14:31;;;;;;;13.07;6.97;;;14.80;99.90;;;;;;5070261;28;20502;-67
2021/03/30 09:17:05;;;;;;;10.60;6.20;;;14.80;99.90;;;;;;5070364;28;20503;-67
2021/03/30 09:19:37;;;;;;;12.40;6.30;;;14.90;99.90;;;;;;5072339;28;20537;-67
2021/03/30 09:22:09;;;;;;;15.97;5.70;;;15.00;99.90;;;;;;5081514;28;20513;-66
2021/03/30 09:27:11;;;;;;;11.13;6.33;;;;;;;;;;5074001;28;20854;-67
2021/03/30 09:29:38;;;;;;;9.50;5.17;;;15.30;99.90;;;;;;5073118;28;20953;-67
2021/03/30 09:32:06;;;;;;;8.67;6.47;;;15.70;99.90;;;;;;5073620;28;20537;-65
2021/03/30 09:34:33;;;;;;;9.53;5.83;;;15.70;99.90;;;;;;5072741;28;21068;-68
2021/03/30 09:37:01;;;;;;;6.23;4.20;;;15.80;99.90;;;;;;5073204;28;20484;-66
2021/03/30 09:39:28;;;;;;;12.70;5.33;;;15.90;99.90;;;;;;5073024;28;20469;-65
2021/03/30 09:41:57;;;;;;;9.83;5.40;;;16.00;99.90;;;;;;5073895;28;20864;-66
2021/03/30 09:44:24;;;;;;;9.30;5.80;;;16.10;99.90;;;;;;5072851;28;20531;-66
2021/03/30 09:46:54;;;;;;;9.20;6.37;;;16.30;99.90;;;;;;5073546;28;20822;-65
2021/03/30 09:49:22;;;;;;;15.20;5.80;;;16.40;99.90;;;;;;5073038;28;20445;-66
2021/03/30 09:51:49;;;;;;;13.73;5.70;;;16.40;99.90;;;;;;5073259;28;20532;-66
2021/03/30 09:54:28;;;;;;;8.97;6.10;;;16.60;99.90;;;;;;5072967;28;20536;-65
2021/03/30 09:57:04;;;;;;;8.53;5.00;;;16.70;99.90;;;;;;5073357;28;20537;-66
2021/03/30 09:59:31;;;;;;;11.77;6.23;;;16.70;99.90;;;;;;5080253;28;20440;-68
2021/03/30 10:01:59;;;;;;;12.83;6.30;;;16.90;99.90;;;;;;5093615;28;20510;-66
2021/03/30 10:04:26;;;;;;;12.37;5.80;;;17.10;99.90;;;;;;5092881;28;20480;-65
2021/03/30 10:06:54;;;;;;;10.40;5.37;;;17.10;99.90;;;;;;5076803;28;20473;-65
2021/03/30 10:09:20;;;;;;;7.13;4.03;;;;;;;;;;5072873;28;20529;-68
2021/03/30 10:11:49;;;;;;;8.23;5.23;;;;;;;;;;5072779;28;20475;-66
2021/03/30 10:14:20;;;;;;;6.27;5.20;;;;;;;;;;5072938;28;20460;-68
2021/03/30 10:16:48;;;;;;;9.60;6.00;;;;;;;;;;5072338;28;21023;-67
2021/03/30 10:19:15;;;;;;;12.87;6.33;;;;;;;;;;5073231;28;20456;-67
2021/03/30 10:21:42;;;;;;;11.97;5.87;;;;;;;;;;5073122;28;20485;-68
2021/03/30 10:24:13;;;;;;;8.83;5.63;;;;;;;;;;5072935;28;20485;-67
2021/03/30 10:26:40;;;;;;;9.93;5.87;;;;;;;;;;5072019;28;20489;-66
2021/03/30 10:29:13;;;;;;;11.03;5.57;;;;;;;;;;5072552;28;20480;-67
2021/03/30 10:31:46;;;;;;;11.13;6.13;;;;;;;;;;5071299;28;20788;-67
2021/03/30 10:34:23;;;;;;;13.80;5.60;;;;;;;;;;5072491;28;20942;-68
2021/03/30 10:36:51;;;;;;;13.80;6.20;;;;;;;;;;5072212;28;20445;-67
2021/03/30 10:39:17;;;;;;;9.37;5.90;;;;;;;;;;5071700;28;20441;-67
2021/03/30 10:41:45;;;;;;;8.53;5.20;;;;;;;;;;5072436;28;20983;-67
2021/03/30 10:44:15;;;;;;;8.67;5.73;;;17.20;99.90;;;;;;5072651;28;20530;-67
2021/03/30 10:46:43;;;;;;;7.80;5.00;;;19.10;62.80;;;;;;5071977;28;20950;-67
2021/03/30 10:49:10;;;;;;;7.33;5.20;;;19.20;58.20;;;;;;5075554;28;20855;-68
2021/03/30 10:51:40;;;;;;;8.27;5.10;;;19.30;52.10;;;;;;5082010;28;20540;-67
2021/03/30 10:54:10;;;;;;;9.27;5.07;;;19.40;46.50;;;;;;5071981;28;20484;-68
2021/03/30 10:56:36;;;;;;;8.80;4.80;;;19.60;42.90;;;;;;5071351;28;20487;-66
2021/03/30 10:59:08;;;;;;;7.53;4.43;;;19.80;37.20;;;;;;5072314;28;20791;-66
2021/03/30 11:01:34;;;;;;;5.63;3.97;;;19.70;32.30;;;;;;5071653;28;20503;-66
2021/03/30 11:04:02;;;;;;;7.17;4.33;;;;;;;;;;5077742;28;20610;-66
2021/03/30 11:06:29;;;;;;;10.20;4.87;;;;;;;;;;5078345;28;21035;-67
2021/03/30 11:08:56;;;;;;;9.07;4.67;;;;;;;;;;5072162;28;20555;-67
2021/03/30 11:11:22;;;;;;;12.47;5.47;;;;;;;;;;5071638;28;20503;-65
2021/03/30 11:13:49;;;;;;;10.73;4.93;;;;;;;;;;5071746;28;20458;-65
2021/03/30 11:16:16;;;;;;;11.53;4.20;;;;;;;;;;5071358;28;20524;-67
2021/03/30 11:18:43;;;;;;;9.57;5.20;;;;;;;;;;5071894;28;20571;-65
2021/03/30 11:21:11;;;;;;;8.20;4.60;;;;;;;;;;5071805;28;20632;-65
2021/03/30 11:23:39;;;;;;;8.53;5.33;;;;;;;;;;5071375;28;20535;-67
2021/03/30 11:26:05;;;;;;;6.37;3.97;;;;;;;;;;5071090;28;20461;-66
2021/03/30 11:28:37;;;;;;;5.57;3.40;;;;;;;;;;5071370;28;20477;-66
2021/03/30 11:31:07;;;;;;;7.00;3.70;;;;;;;;;;5071753;28;20437;-66
2021/03/30 11:33:36;;;;;;;6.43;3.90;;;;;;;;;;5071161;28;20485;-66
2021/03/30 11:36:06;;;;;;;6.63;3.77;;;;;;;;;;5071383;28;20441;-66
2021/03/30 11:38:34;;;;;;;7.63;3.63;;;;;;;;;;5070746;28;20454;-66
2021/03/30 11:41:00;;;;;;;4.63;3.70;;;;;;;;;;5071411;28;20528;-67
2021/03/30 11:43:27;;;;;;;6.53;3.70;;;;;;;;;;5071047;28;20566;-67
2021/03/30 11:45:54;;;;;;;9.43;3.63;;;;;;;;;;5071387;28;20784;-67
2021/03/30 11:48:20;;;;;;;5.50;3.40;;;;;;;;;;5071486;28;20460;-67
2021/03/30 11:50:49;;;;;;;6.17;3.37;;;;;;;;;;5071110;28;21009;-67
2021/03/30 11:53:16;;;;;;;4.20;3.40;;;;;;;;;;5071265;28;20457;-67
2021/03/30 11:55:43;;;;;;;5.13;3.33;;;;;;;;;;5071246;28;20537;-67
2021/03/30 11:58:10;;;;;;;8.37;4.60;;;;;;;;;;5071425;28;20473;-67
2021/03/30 12:00:37;;;;;;;5.27;4.03;;;;;;;;;;5070422;28;20468;-67
2021/03/30 12:03:04;;;;;;;5.53;4.00;;;;;;;;;;5071236;28;20554;-67
2021/03/30 12:05:30;;;;;;;7.60;3.63;;;;;;;;;;5084009;28;20849;-67
2021/03/30 12:07:59;;;;;;;7.63;3.60;;;;;;;;;;5071203;28;20529;-66
2021/03/30 12:10:25;;;;;;;4.37;3.30;;;;;;;;;;5070309;28;20449;-66
2021/03/30 12:12:53;;;;;;;3.83;2.90;;;;;;;;;;5071410;28;20453;-66
2021/03/30 12:15:19;;;;;;;3.70;3.13;;;19.90;29.00;;;;;;5070312;28;20917;-66
2021/03/30 12:17:46;;;;;;;5.70;3.83;;;23.60;1.00;;;;;;5071140;28;20823;-66
2021/03/30 12:20:15;;;;;;;6.20;3.20;;;23.50;1.00;;;;;;5071159;28;20529;-66
2021/03/30 12:22:42;;;;;;;9.70;3.67;;;23.80;1.00;;;;;;5071235;28;20843;-66
2021/03/30 12:25:09;;;;;;;5.67;4.30;;;23.90;1.00;;;;;;5070701;28;20477;-66
2021/03/30 12:27:36;;;;;;;6.30;3.33;;;23.80;1.00;;;;;;5070412;28;20484;-67
2021/03/30 12:30:03;;;;;;;5.67;3.77;;;23.80;1.00;;;;;;5071046;28;20870;-67
2021/03/30 12:32:30;;;;;;;5.27;3.77;;;23.60;1.00;;;;;;5070278;28;20987;-67
2021/03/30 12:34:56;;;;;;;4.07;2.97;;;23.50;1.00;;;;;;5070056;28;20480;-66
2021/03/30 12:37:23;;;;;;;4.30;3.63;;;23.20;1.00;;;;;;5070190;28;20979;-66
2021/03/30 12:39:49;;;;;;;4.30;3.80;;;23.00;1.00;;;;;;5071188;28;20876;-67
2021/03/30 12:42:16;;;;;;;4.17;3.30;;;23.30;1.00;;;;;;5070634;28;20481;-68
2021/03/30 12:44:42;;;;;;;6.23;3.13;;;23.30;1.00;;;;;;5070656;28;20483;-67
2021/03/30 12:47:09;;;;;;;4.97;3.07;;;23.60;1.00;;;;;;5070748;28;20485;-66
2021/03/30 12:49:36;;;;;;;4.33;2.70;;;23.80;1.00;;;;;;5070207;28;20455;-67
2021/03/30 12:52:03;;;;;;;3.57;3.10;;;23.90;1.00;;;;;;5070768;28;20509;-66
2021/03/30 12:54:29;;;;;;;4.20;3.10;;;24.10;1.00;;;;;;5072635;28;20526;-67
2021/03/30 12:56:55;;;;;;;5.63;3.20;;;24.10;1.00;;;;;;5074659;28;20518;-66
2021/03/30 12:59:22;;;;;;;6.80;3.43;;;23.90;1.00;;;;;;5074024;28;20540;-66
2021/03/30 13:01:49;;;;;;;3.17;2.40;;;24.20;1.00;;;;;;5074640;28;20481;-67
2021/03/30 13:04:16;;;;;;;2.73;2.50;;;24.50;1.00;;;;;;5082446;28;20472;-66
2021/03/30 13:06:42;;;;;;;8.60;2.90;;;24.10;1.00;;;;;;5078886;28;20568;-66
2021/03/30 13:09:09;;;;;;;6.47;3.30;;;24.30;1.00;;;;;;5074279;28;20536;-66
2021/03/30 13:11:35;;;;;;;5.07;3.43;;;24.40;1.00;;;;;;5073563;28;21136;-66
2021/03/30 13:14:02;;;;;;;8.20;3.03;;;23.90;1.00;;;;;;5074106;28;20453;-66
2021/03/30 13:16:29;;;;;;;5.17;3.10;;;24.10;1.00;;;;;;5072866;28;20535;-66
2021/03/30 13:18:55;;;;;;;4.73;3.30;;;24.30;1.00;;;;;;5073965;28;20449;-66
2021/03/30 13:21:22;;;;;;;6.00;3.23;;;24.30;1.00;;;;;;5073548;28;20464;-66
2021/03/30 13:23:51;;;;;;;12.53;4.50;;;;;;;;;;5074141;28;20508;-66
2021/03/30 13:26:18;;;;;;;7.00;3.13;;;;;;;;;;5073137;28;20492;-67
2021/03/30 13:28:44;;;;;;;5.33;3.70;;;;;;;;;;5074139;28;20495;-67